»·PEaware :: N5268J KONT-KSBA

N5268J :: KONT-KSBA

FLIGHT INFORMATION

Flight Status: Arrived
Operator: Privately registered:
United States
More flights under this callsign
Pilot: John P. (31881)
Aircraft: BEECH AIRCRAFT BONANZA
(BE36)
More flights by this aircraft type
Origin: KONT Ontario Intl
United States
Destination: KSBA Santa Barbara Mun
United States
More flights between these airports :: More routes between these airports
Route: ONT SBA
File this flight plan on PilotEdge
Remarks:
Altitude:
(Current/Filed)
4,500ft
Speed:
(Current/Filed)
167kts
Departed: 18-Oct-20 06:30 PM
Arrived: 18-Oct-20 07:16 PM
Distance/Time
Traveled:
113nm/0:46
Distance/Time
To Go:
Arrived

Flight Plot

Page will automatically refresh every two minutes.

Flight plan parsing failed; only flown route is shown


Map Options




Map Legend


Flown Route
Filed Route
Departure Airport
Arrival Airport
Navaid (VOR, NDB)
Fix

Horizontal Profiles

Position Reports

Time Latitude Longitude Heading Altitude Ground
Speed
18-Oct-20 17:55 34.056067 -117.582725 359 934ft 0kts
18-Oct-20 17:56 34.056067 -117.582725 359 933ft 0kts
18-Oct-20 17:57 34.056921 -117.583098 274 936ft 5kts
18-Oct-20 17:58 34.056911 -117.583649 269 938ft 0kts
18-Oct-20 17:59 0.000408 0.013975 360 3ft 0kts
18-Oct-20 18:00 0.000408 0.013975 360 3ft 0kts
18-Oct-20 18:01 0.000408 0.013975 360 3ft 0kts
18-Oct-20 18:02 34.053217 -117.616531 46 934ft 0kts
18-Oct-20 18:03 34.053217 -117.616531 46 934ft 0kts
18-Oct-20 18:04 34.053217 -117.616531 46 940ft 0kts
18-Oct-20 18:05 34.053217 -117.616531 46 940ft 0kts
18-Oct-20 18:06 34.053217 -117.616530 46 940ft 0kts
18-Oct-20 18:07 34.053217 -117.616530 46 940ft 0kts
18-Oct-20 18:08 34.053217 -117.616530 46 940ft 0kts
18-Oct-20 18:09 34.053217 -117.616530 46 940ft 0kts
18-Oct-20 18:10 34.053217 -117.616530 46 940ft 0kts
18-Oct-20 18:11 34.053217 -117.616530 46 940ft 0kts
18-Oct-20 18:12 34.053217 -117.616530 46 940ft 0kts
18-Oct-20 18:13 34.053217 -117.616530 46 940ft 0kts
18-Oct-20 18:14 34.053217 -117.616530 46 940ft 0kts
18-Oct-20 18:15 34.053217 -117.616530 46 940ft 0kts
18-Oct-20 18:16 34.053217 -117.616530 46 940ft 0kts
18-Oct-20 18:17 34.053217 -117.616530 46 940ft 0kts
18-Oct-20 18:18 34.053217 -117.616530 46 940ft 0kts
18-Oct-20 18:19 34.053217 -117.616530 46 940ft 0kts
18-Oct-20 18:20 34.053217 -117.616530 46 940ft 0kts
18-Oct-20 18:21 34.053217 -117.616530 46 940ft 0kts
18-Oct-20 18:22 34.053869 -117.613449 87 940ft 20kts
18-Oct-20 18:23 34.053851 -117.604010 90 933ft 29kts
18-Oct-20 18:24 34.053869 -117.596289 90 936ft 17kts
18-Oct-20 18:25 34.053902 -117.588989 88 929ft 26kts
18-Oct-20 18:26 34.054074 -117.582810 30 929ft 0kts
18-Oct-20 18:27 34.054074 -117.582810 30 929ft 0kts
18-Oct-20 18:28 34.054978 -117.583858 272 929ft 33kts
18-Oct-20 18:29 34.054231 -117.617001 270 1377ft 129kts
18-Oct-20 18:30 34.065599 -117.655968 297 2352ft 134kts
18-Oct-20 18:31 34.084053 -117.700253 297 2471ft 158kts
18-Oct-20 18:32 34.084851 -117.743641 240 3446ft 107kts
18-Oct-20 18:33 34.086639 -117.778248 282 4588ft 106kts
18-Oct-20 18:34 34.092826 -117.813387 283 5668ft 108kts
18-Oct-20 18:35 34.099006 -117.848591 283 6640ft 109kts
18-Oct-20 18:36 34.105138 -117.884186 283 7545ft 110kts
18-Oct-20 18:37 34.110890 -117.917542 283 8262ft 116kts
18-Oct-20 18:38 34.118335 -117.960769 282 8463ft 148kts
18-Oct-20 18:39 34.126931 -118.010943 282 8467ft 157kts
18-Oct-20 18:40 34.135801 -118.062738 282 8467ft 157kts
18-Oct-20 18:41 34.144585 -118.114201 282 8466ft 157kts
18-Oct-20 18:42 34.153328 -118.165527 282 8469ft 157kts
18-Oct-20 18:43 34.162081 -118.217046 282 8465ft 157kts
18-Oct-20 18:44 34.170467 -118.266557 282 8464ft 156kts
18-Oct-20 18:45 34.179159 -118.317998 282 8466ft 156kts
18-Oct-20 18:46 34.187755 -118.369012 282 8467ft 156kts
18-Oct-20 18:47 34.196372 -118.420285 282 8466ft 156kts
18-Oct-20 18:48 34.204969 -118.471635 282 8467ft 156kts
18-Oct-20 18:49 34.213585 -118.523114 282 8476ft 156kts
18-Oct-20 18:50 34.222385 -118.575918 282 8191ft 168kts
18-Oct-20 18:51 34.231753 -118.632301 282 7684ft 173kts
18-Oct-20 18:52 34.241164 -118.689087 282 7108ft 174kts
18-Oct-20 18:53 34.250385 -118.744914 281 6604ft 168kts
18-Oct-20 18:54 34.259558 -118.800569 281 6477ft 165kts
18-Oct-20 18:55 34.268476 -118.854854 281 6479ft 163kts
18-Oct-20 18:56 34.277286 -118.908667 281 6482ft 163kts
18-Oct-20 18:58 34.286074 -118.962501 281 6483ft 163kts
18-Oct-20 18:59 34.294869 -119.016485 281 6482ft 163kts
18-Oct-20 19:00 34.303697 -119.070860 281 6321ft 171kts
18-Oct-20 19:01 34.313171 -119.129406 281 5660ft 184kts
18-Oct-20 19:02 34.322864 -119.189476 281 4664ft 169kts
18-Oct-20 19:03 34.331874 -119.245510 281 4483ft 170kts
18-Oct-20 19:04 34.340906 -119.301799 281 4477ft 168kts
18-Oct-20 19:05 34.349881 -119.357916 281 4088ft 166kts
18-Oct-20 19:06 34.358365 -119.411168 281 3589ft 159kts
18-Oct-20 19:07 34.366727 -119.463839 281 3086ft 159kts
18-Oct-20 19:08 34.380687 -119.514912 300 2740ft 158kts
18-Oct-20 19:09 34.403253 -119.563005 300 2478ft 171kts
18-Oct-20 19:10 34.422847 -119.615233 287 2469ft 163kts
18-Oct-20 19:11 34.433341 -119.666468 282 1661ft 162kts
18-Oct-20 19:12 34.432596 -119.719345 262 1467ft 142kts
18-Oct-20 19:13 34.427128 -119.762598 262 1470ft 116kts
18-Oct-20 19:14 34.428576 -119.799364 268 960ft 107kts
18-Oct-20 19:15 34.427891 -119.833665 270 81ft 86kts
18-Oct-20 19:16 34.426793 -119.846340 177 11ft 0kts
18-Oct-20 19:16 34.426793 -119.846340 177 11ft 0kts
18-Oct-20 19:18 34.426657 -119.842350 91 12ft 26kts
18-Oct-20 19:18 34.426609 -119.838285 164 12ft 13kts
18-Oct-20 19:20 34.421953 -119.836511 171 12ft 10kts
18-Oct-20 19:20 34.421029 -119.835934 141 12ft 0kts

Navigation Log

Ident Type
Flight plan parsing failed, navigation log unavailable